Time;durP1;ratioP1;P1;durP2;ratioP2;P2;SDS_P1;SDS_P2;PMS_P1;PMS_P2;Temp;Humidity;BMP_temperature;BMP_pressure;BME280_temperature;BME280_humidity;BME280_pressure;Samples;Min_cycle;Max_cycle;Signal;HPM_P1;HPM_P2
2021/09/27 00:01:03;;;;;;;;;;;;;;;22.16;58.19;101226.22;5004124;28;1554;-41
2021/09/27 00:03:31;;;;;;;;;;;;;;;22.16;58.21;101220.84;5003853;28;1559;-41
2021/09/27 00:05:58;;;;;;;;;;;;;;;22.15;58.29;101230.75;5002119;28;1910;-41
2021/09/27 00:08:25;;;;;;;;;;;;;;;22.13;57.93;101226.53;5001687;28;1867;-42
2021/09/27 00:10:54;;;;;;;;;;;;;;;22.19;57.84;101237.56;5004670;28;1790;-41
2021/09/27 00:13:20;;;;;;;;;;;;;;;22.16;58.00;101227.09;5004389;28;2266;-41
2021/09/27 00:15:48;;;;;;;;;;;;;;;22.18;58.16;101227.78;5007857;28;1274;-41
2021/09/27 00:18:15;;;;;;;;;;;;;;;22.13;58.12;101216.59;5008388;28;1956;-41
2021/09/27 00:20:45;;;;;;;;;;;;;;;22.12;57.89;101217.56;5005743;28;1953;-41
2021/09/27 00:23:12;;;;;;;;;;;;;;;22.14;58.08;101204.81;5006749;28;1854;-41
2021/09/27 00:25:39;;;;;;;;;;;;;;;22.12;57.99;101204.09;5003798;28;2063;-41
2021/09/27 00:28:05;;;;;;;;;;;;;;;22.12;57.94;101196.03;5004163;28;1691;-41
2021/09/27 00:30:32;;;;;;;;;;;;;;;22.11;58.34;101191.66;5005708;28;2247;-41
2021/09/27 00:32:59;;;;;;;;;;;;;;;22.12;58.29;101203.25;5002931;28;1946;-43
2021/09/27 00:35:27;;;;;;;;;;;;;;;22.15;58.17;101219.16;5004642;28;996;-40
2021/09/27 00:37:55;;;;;;;;;;;;;;;22.13;58.15;101216.59;5012544;28;1941;-42
2021/09/27 00:40:23;;;;;;;;;;;;;;;22.11;57.89;101217.75;5004626;28;1634;-41
2021/09/27 00:42:50;;;;;;;;;;;;;;;22.14;57.71;101210.19;5005698;28;1790;-41
2021/09/27 00:45:17;;;;;;;;;;;;;;;22.09;58.12;101209.81;5005290;28;1906;-41
2021/09/27 00:47:44;;;;;;;;;;;;;;;22.09;57.65;101215.19;5011992;28;1699;-41
2021/09/27 00:50:12;;;;;;;;;;;;;;;22.08;58.25;101208.09;5004400;28;1669;-41
2021/09/27 00:52:38;;;;;;;;;;;;;;;22.11;58.07;101223.97;5005387;28;1794;-41
2021/09/27 00:55:10;;;;;;;;;;;;;;;22.09;58.24;101204.41;5003178;28;1576;-44
2021/09/27 00:57:36;;;;;;;;;;;;;;;22.12;57.96;101220.28;5004676;28;1003;-41
2021/09/27 01:00:05;;;;;;;;;;;;;;;22.11;57.82;101225.81;5009481;28;1620;-41
2021/09/27 01:02:32;;;;;;;;;;;;;;;22.12;57.95;101217.56;5000506;28;1602;-40
2021/09/27 01:04:58;;;;;;;;;;;;;;;22.11;57.94;101225.81;4996703;28;1759;-41
2021/09/27 01:07:29;;;;;;;;;;;;;;;22.09;57.79;101215.19;5012299;28;1973;-41
2021/09/27 01:10:03;;;;;;;;;;;;;;;22.09;58.31;101222.44;5006353;28;1213;-41
2021/09/27 01:12:46;;;;;;;;;;;;;;;22.07;58.01;101216.34;5004733;28;1057;-42
2021/09/27 01:15:19;;;;;;;;;;;;;;;22.07;58.13;101216.34;5006075;28;1084;-41
2021/09/27 01:17:53;;;;;;;;;;;;;;;22.09;58.03;101231.34;5000665;28;1528;-42
2021/09/27 01:20:36;;;;;;;;;;;;;;;22.07;58.09;101211.78;5004494;28;1797;-41
2021/09/27 01:23:16;;;;;;;;;;;;;;;22.09;58.09;101223.25;4998225;28;1621;-41
2021/09/27 01:25:56;;;;;;;;;;;;;;;22.05;57.93;101216.47;5003136;28;1989;-41
2021/09/27 01:28:46;;;;;;;;;;;;;;;22.06;57.89;101218.16;5002906;28;1719;-41
2021/09/27 01:31:34;;;;;;;;;;;;;;;22.07;58.33;101227.09;4995386;28;1815;-42
2021/09/27 01:34:06;;;;;;;;;;;;;;;22.08;57.72;101218.84;4997632;28;1623;-42
2021/09/27 01:36:42;;;;;;;;;;;;;;;22.09;58.01;101231.34;5007465;28;1143;-41
2021/09/27 01:39:12;;;;;;;;;;;;;;;22.06;57.93;101220.84;5004725;28;1840;-41
2021/09/27 01:41:41;;;;;;;;;;;;;;;22.09;57.79;101225.97;5009649;28;1593;-41
2021/09/27 01:44:13;;;;;;;;;;;;;;;22.09;58.06;101220.56;5002859;28;1987;-41
2021/09/27 01:46:43;;;;;;;;;;;;;;;22.05;57.78;101217.31;4999916;28;1902;-41
2021/09/27 01:49:15;;;;;;;;;;;;;;;22.07;57.73;101219.88;5003671;28;1899;-41
2021/09/27 01:51:44;;;;;;;;;;;;;;;22.05;57.77;101221.84;5002765;28;1012;-41
2021/09/27 01:54:16;;;;;;;;;;;;;;;22.06;57.72;101223.53;5004147;28;1952;-42
2021/09/27 01:56:48;;;;;;;;;;;;;;;22.06;58.39;101215.47;5004054;28;1946;-41
2021/09/27 01:59:17;;;;;;;;;;;;;;;22.07;58.03;101217.19;5004157;28;2030;-41
2021/09/27 02:01:51;;;;;;;;;;;;;;;22.05;57.82;101222.69;5119348;22;3779;-43
2021/09/27 02:04:22;;;;;;;;;;;;;;;22.04;57.62;101236.31;4984142;28;1524;-43
2021/09/27 02:06:50;;;;;;;;;;;;;;;22.10;58.18;101238.41;4985482;28;1914;-43
2021/09/27 02:09:19;;;;;;;;;;;;;;;22.09;58.28;101225.13;4983039;28;2090;-44
2021/09/27 02:11:50;;;;;;;;;;;;;;;22.05;57.86;101224.56;4984522;28;1939;-43
2021/09/27 02:14:20;;;;;;;;;;;;;;;22.05;57.72;101224.56;4984038;28;1813;-44
2021/09/27 02:16:50;;;;;;;;;;;;;;;22.06;57.84;101218.16;4989667;28;1592;-44
2021/09/27 02:19:20;;;;;;;;;;;;;;;22.07;57.98;101214.47;4985299;28;1022;-43
2021/09/27 02:21:50;;;;;;;;;;;;;;;22.03;57.83;101216.63;4979622;28;2251;-42
2021/09/27 02:24:22;;;;;;;;;;;;;;;22.08;58.13;101234.19;4983876;28;1586;-43
2021/09/27 02:26:49;;;;;;;;;;;;;;;22.08;57.87;101224.25;4983475;28;1910;-43
2021/09/27 02:29:17;;;;;;;;;;;;;;;22.08;58.02;101210.78;4984027;28;1685;-43
2021/09/27 02:31:48;;;;;;;;;;;;;;;22.06;58.07;101207.38;4981412;28;1537;-45
2021/09/27 02:34:18;;;;;;;;;;;;;;;22.04;57.60;101212.94;4981970;28;1853;-43
2021/09/27 02:36:47;;;;;;;;;;;;;;;22.09;57.91;101214.34;4984953;28;1073;-43
2021/09/27 02:39:19;;;;;;;;;;;;;;;22.07;57.52;101206.41;4990252;28;2036;-44
2021/09/27 02:41:48;;;;;;;;;;;;;;;22.08;58.01;101213.47;4982064;28;1821;-42
2021/09/27 02:44:15;;;;;;;;;;;;;;;22.05;57.76;101206.53;4981394;28;1663;-42
2021/09/27 02:46:44;;;;;;;;;;;;;;;22.02;57.69;101211.38;4981108;28;1979;-43
2021/09/27 02:49:11;;;;;;;;;;;;;;;22.02;57.87;101209.53;4983358;28;1847;-44
2021/09/27 02:51:39;;;;;;;;;;;;;;;22.04;57.74;101212.06;4983011;28;1084;-44
2021/09/27 02:54:05;;;;;;;;;;;;;;;22.08;57.81;101210.78;4983617;28;1724;-44
2021/09/27 02:56:47;;;;;;;;;;;;;;;22.07;57.62;101216.34;4983971;28;1776;-43
2021/09/27 02:59:16;;;;;;;;;;;;;;;22.01;57.60;101201.59;4983503;28;1893;-43
2021/09/27 03:01:48;;;;;;;;;;;;;;;22.05;57.72;101203.00;4983148;28;1647;-44
2021/09/27 03:04:17;;;;;;;;;;;;;;;22.04;58.03;101203.97;4983169;28;1770;-44
2021/09/27 03:06:52;;;;;;;;;;;;;;;22.01;58.01;101196.22;4980171;28;1986;-42
2021/09/27 03:09:27;;;;;;;;;;;;;;;22.00;57.33;101208.84;4979025;28;1909;-43
2021/09/27 03:12:11;;;;;;;;;;;;;;;22.04;57.67;101212.06;4978755;28;1903;-43
2021/09/27 03:15:02;;;;;;;;;;;;;;;22.02;57.74;101200.59;4979463;28;2049;-43
2021/09/27 03:17:31;;;;;;;;;;;;;;;22.00;57.49;101206.16;4977178;28;1806;-43
2021/09/27 03:20:16;;;;;;;;;;;;;;;22.00;57.46;101207.97;4981083;28;1496;-43
2021/09/27 03:22:46;;;;;;;;;;;;;;;22.04;57.87;101212.06;4955663;28;1954;-42
2021/09/27 03:25:22;;;;;;;;;;;;;;;21.99;57.51;101201.75;4986804;28;1664;-44
2021/09/27 03:27:55;;;;;;;;;;;;;;;21.98;57.42;101208.09;4986642;28;1989;-43
2021/09/27 03:30:28;;;;;;;;;;;;;;;22.00;57.27;101194.50;4986021;28;1819;-45
2021/09/27 03:32:58;;;;;;;;;;;;;;;22.05;57.58;101197.63;4988087;28;1258;-43
2021/09/27 03:35:30;;;;;;;;;;;;;;;21.98;57.88;101178.47;4985610;28;1126;-43
2021/09/27 03:38:01;;;;;;;;;;;;;;;21.98;57.65;101201.88;4993735;28;1721;-43
2021/09/27 03:40:34;;;;;;;;;;;;;;;22.04;57.41;101201.28;4985439;28;1624;-44
2021/09/27 03:43:07;;;;;;;;;;;;;;;22.01;57.81;101196.22;4986674;28;1534;-43
2021/09/27 03:45:43;;;;;;;;;;;;;;;22.02;57.94;101192.50;4986985;28;1901;-44
2021/09/27 03:48:13;;;;;;;;;;;;;;;21.98;57.49;101188.41;4986428;28;1918;-43
2021/09/27 03:50:41;;;;;;;;;;;;;;;21.99;57.98;101193.66;4986034;28;1012;-44
2021/09/27 03:53:10;;;;;;;;;;;;;;;22.00;57.64;101194.50;4993537;28;1681;-42
2021/09/27 03:55:39;;;;;;;;;;;;;;;22.00;57.57;101192.69;4984196;28;1564;-42
2021/09/27 03:58:12;;;;;;;;;;;;;;;21.99;57.90;101190.13;4984936;28;1738;-43
2021/09/27 04:00:44;;;;;;;;;;;;;;;21.94;57.38;101187.00;4986393;28;1521;-44
2021/09/27 04:03:11;;;;;;;;;;;;;;;21.97;57.63;101198.34;4986095;28;1605;-43
2021/09/27 04:05:44;;;;;;;;;;;;;;;21.95;57.18;101196.78;4985051;28;1820;-44
2021/09/27 04:08:14;;;;;;;;;;;;;;;22.01;57.94;101199.75;4980793;28;1902;-43
2021/09/27 04:10:52;;;;;;;;;;;;;;;22.01;58.11;101201.59;4984040;28;1740;-44
2021/09/27 04:13:23;;;;;;;;;;;;;;;21.99;57.92;101199.03;4993080;28;1818;-42
2021/09/27 04:15:59;;;;;;;;;;;;;;;21.94;57.58;101187.00;4988134;28;1047;-43
2021/09/27 04:18:33;;;;;;;;;;;;;;;21.95;57.89;101183.34;4987082;28;1760;-43
2021/09/27 04:21:04;;;;;;;;;;;;;;;22.00;57.47;101207.97;4986293;28;1931;-43
2021/09/27 04:23:39;;;;;;;;;;;;;;;21.98;57.85;101193.78;4988902;28;1749;-43
2021/09/27 04:26:07;;;;;;;;;;;;;;;21.98;57.88;101207.25;4985729;28;1551;-43
2021/09/27 04:29:04;;;;;;;;;;;;;;;21.99;57.69;101195.50;4984925;28;1973;-42
2021/09/27 04:31:38;;;;;;;;;;;;;;;22.01;57.75;101202.44;4906926;29;1816;-44
2021/09/27 04:34:12;;;;;;;;;;;;;;;21.97;57.32;101210.97;4973022;28;2873;-43
2021/09/27 04:36:41;;;;;;;;;;;;;;;21.97;57.93;101216.34;4986756;28;1085;-43
2021/09/27 04:39:10;;;;;;;;;;;;;;;21.94;57.69;101211.25;4992808;28;1968;-43
2021/09/27 04:41:46;;;;;;;;;;;;;;;21.94;57.61;101205.84;4984013;28;1722;-42
2021/09/27 04:44:23;;;;;;;;;;;;;;;21.97;57.66;101205.56;4984055;28;1530;-43
2021/09/27 04:46:57;;;;;;;;;;;;;;;21.96;58.06;101220.03;4984189;28;1972;-43
2021/09/27 04:49:31;;;;;;;;;;;;;;;21.99;57.43;101217.06;4984208;28;1691;-42
2021/09/27 04:52:04;;;;;;;;;;;;;;;21.96;57.80;101215.47;4985237;28;1062;-43
2021/09/27 04:55:00;;;;;;;;;;;;;;;21.98;57.76;101208.09;4982679;28;1905;-43
2021/09/27 04:57:29;;;;;;;;;;;;;;;21.97;57.18;101211.81;4984867;28;1060;-42
2021/09/27 05:00:03;;;;;;;;;;;;;;;21.98;57.98;101218.03;4983845;28;1795;-43
2021/09/27 05:02:44;;;;;;;;;;;;;;;21.99;57.78;101222.44;4984368;28;1557;-43
2021/09/27 05:05:17;;;;;;;;;;;;;;;21.97;58.00;101216.34;4981994;28;1784;-44
2021/09/27 05:07:58;;;;;;;;;;;;;;;21.95;57.84;101223.72;4993935;28;1983;-43
2021/09/27 05:10:42;;;;;;;;;;;;;;;21.96;57.40;101220.03;4986827;28;2305;-43
2021/09/27 05:13:24;;;;;;;;;;;;;;;21.97;57.75;101213.66;4986377;28;1948;-43
2021/09/27 05:16:03;;;;;;;;;;;;;;;22.00;57.81;101232.19;4985365;28;1078;-43
2021/09/27 05:18:44;;;;;;;;;;;;;;;22.01;57.72;101229.38;4982269;28;1617;-43
2021/09/27 05:21:20;;;;;;;;;;;;;;;21.99;57.07;101230.53;4986609;28;1773;-43
2021/09/27 05:23:52;;;;;;;;;;;;;;;21.99;57.89;101227.81;4988670;28;1837;-43
2021/09/27 05:26:28;;;;;;;;;;;;;;;22.04;57.53;101236.31;4986407;28;1749;-43
2021/09/27 05:28:59;;;;;;;;;;;;;;;22.01;57.77;101242.00;4986192;28;1970;-44
2021/09/27 05:31:40;;;;;;;;;;;;;;;22.05;57.72;101236.16;4980532;28;1548;-43
2021/09/27 05:34:09;;;;;;;;;;;;;;;22.08;57.69;101235.03;4977365;28;1599;-43
2021/09/27 05:36:47;;;;;;;;;;;;;;;22.11;57.73;101223.13;4988540;28;998;-44
2021/09/27 05:39:20;;;;;;;;;;;;;;;22.13;57.60;101221.13;4985683;28;1570;-44
2021/09/27 05:41:54;;;;;;;;;;;;;;;22.16;57.54;101221.72;4986161;28;1632;-43
2021/09/27 05:44:26;;;;;;;;;;;;;;;22.17;57.25;101228.78;4984836;28;1577;-43
2021/09/27 05:47:03;;;;;;;;;;;;;;;22.17;57.41;101222.53;4985714;28;1910;-44
2021/09/27 05:49:35;;;;;;;;;;;;;;;22.17;56.96;101218.00;4986009;28;1945;-43
2021/09/27 05:52:05;;;;;;;;;;;;;;;22.18;56.84;101214.31;4991258;28;1111;-42
2021/09/27 05:54:38;;;;;;;;;;;;;;;22.22;57.04;101206.78;4983774;28;1991;-42
2021/09/27 05:57:09;;;;;;;;;;;;;;;22.27;57.14;101217.16;4983888;28;1944;-43
2021/09/27 05:59:42;;;;;;;;;;;;;;;22.28;56.86;101210.78;4981429;28;1959;-43
2021/09/27 06:02:13;;;;;;;;;;;;;;;22.29;57.20;101215.19;4985146;28;1775;-43
2021/09/27 06:04:48;;;;;;;;;;;;;;;22.28;57.10;101216.16;4985678;28;1962;-43
2021/09/27 06:07:18;;;;;;;;;;;;;;;22.27;56.99;101223.41;4992976;28;1910;-42
2021/09/27 06:09:53;;;;;;;;;;;;;;;22.26;57.25;101218.16;4983985;28;1002;-43
2021/09/27 06:12:22;;;;;;;;;;;;;;;22.27;56.93;101227.94;4983441;28;1744;-43
2021/09/27 06:14:49;;;;;;;;;;;;;;;22.33;56.88;101222.81;4983662;28;1669;-43
2021/09/27 06:17:21;;;;;;;;;;;;;;;22.31;56.82;101218.56;4991921;28;1978;-43
2021/09/27 06:19:48;;;;;;;;;;;;;;;22.32;56.67;101226.50;4983484;28;1545;-42
2021/09/27 06:22:26;;;;;;;;;;;;;;;22.36;56.80;101227.06;4985757;28;1068;-43
2021/09/27 06:24:57;;;;;;;;;;;;;;;22.34;56.57;101218.25;4986214;28;1102;-43
2021/09/27 06:27:31;;;;;;;;;;;;;;;22.35;56.68;101214.59;4982817;28;1973;-43
2021/09/27 06:30:02;;;;;;;;;;;;;;;22.37;56.71;101212.59;4981082;28;1778;-42
2021/09/27 06:32:32;;;;;;;;;;;;;;;22.39;56.80;101208.75;4991121;28;2696;-42
2021/09/27 06:35:01;;;;;;;;;;;;;;;22.38;56.61;101214.28;4989980;28;1639;-43
2021/09/27 06:37:30;;;;;;;;;;;;;;;22.38;56.91;101211.59;4987488;28;1104;-43
2021/09/27 06:39:57;;;;;;;;;;;;;;;22.42;56.92;101213.84;4986239;28;1603;-43
2021/09/27 06:42:23;;;;;;;;;;;;;;;22.43;56.64;101217.41;4984470;28;1779;-43
2021/09/27 06:44:52;;;;;;;;;;;;;;;22.42;56.91;101219.25;4984918;28;1526;-44
2021/09/27 06:47:19;;;;;;;;;;;;;;;22.46;56.81;101227.88;4984763;28;1972;-44
2021/09/27 06:49:45;;;;;;;;;;;;;;;22.44;56.72;101222.66;4982515;28;1465;-43
2021/09/27 06:52:12;;;;;;;;;;;;;;;22.48;56.80;101225.03;4985918;28;1070;-43
2021/09/27 06:54:40;;;;;;;;;;;;;;;22.44;56.70;101219.06;4982369;28;1374;-42
2021/09/27 06:57:06;;;;;;;;;;;;;;;22.44;56.82;101227.16;4982615;28;1654;-44
2021/09/27 06:59:33;;;;;;;;;;;;;;;22.43;57.36;101222.78;4984319;28;1700;-42
2021/09/27 07:01:59;;;;;;;;;;;;;;;22.46;56.94;101238.63;4984296;28;1908;-44
2021/09/27 07:04:26;;;;;;;;;;;;;;;22.43;57.13;101229.00;4984648;28;1609;-43
2021/09/27 07:06:52;;;;;;;;;;;;;;;22.49;56.97;101232.13;4989135;28;1052;-43
2021/09/27 07:09:19;;;;;;;;;;;;;;;22.42;56.96;101230.03;4983510;28;1902;-43
2021/09/27 07:11:47;;;;;;;;;;;;;;;22.43;57.00;101233.56;4984676;28;2470;-42
2021/09/27 07:14:13;;;;;;;;;;;;;;;22.44;56.91;101229.84;4984657;28;1869;-43
2021/09/27 07:16:41;;;;;;;;;;;;;;;22.44;57.21;101219.94;4990050;28;1349;-45
2021/09/27 07:19:08;;;;;;;;;;;;;;;22.46;56.78;101225.16;4983202;28;1008;-43
2021/09/27 07:21:35;;;;;;;;;;;;;;;22.49;57.23;101226.75;4982289;28;1828;-43
2021/09/27 07:24:02;;;;;;;;;;;;;;;22.51;56.82;101236.38;4985305;28;1566;-43
2021/09/27 07:26:29;;;;;;;;;;;;;;;22.50;57.04;101218.50;4984472;28;1811;-43
2021/09/27 07:28:59;;;;;;;;;;;;;;;22.52;57.04;101229.13;4984310;28;2100;-43
2021/09/27 07:31:27;;;;;;;;;;;;;;;22.49;56.97;101221.34;4984520;28;2232;-44
2021/09/27 07:33:54;;;;;;;;;;;;;;;22.48;56.99;101222.34;4983018;28;1782;-42
2021/09/27 07:36:20;;;;;;;;;;;;;;;22.49;56.79;101219.50;4985613;28;1079;-42
2021/09/27 07:38:47;;;;;;;;;;;;;;;22.53;56.81;101231.69;4987409;28;1825;-43
2021/09/27 07:41:14;;;;;;;;;;;;;;;22.54;56.75;101217.22;4984370;28;1628;-43
2021/09/27 07:43:40;;;;;;;;;;;;;;;22.56;57.19;101222.44;4984008;28;1504;-42
2021/09/27 07:46:08;;;;;;;;;;;;;;;22.54;56.89;101219.03;4982115;28;1698;-43
2021/09/27 07:48:35;;;;;;;;;;;;;;;22.54;56.87;101227.13;4982384;28;2237;-43
2021/09/27 07:51:01;;;;;;;;;;;;;;;22.52;56.90;101215.66;4985118;28;1170;-43
2021/09/27 07:53:28;;;;;;;;;;;;;;;22.54;56.95;101219.91;4990181;28;2098;-43
2021/09/27 07:55:54;;;;;;;;;;;;;;;22.58;57.07;101225.84;4983101;28;1720;-43
2021/09/27 07:58:21;;;;;;;;;;;;;;;22.53;56.86;101223.59;4982188;28;1601;-43
2021/09/27 08:00:48;;;;;;;;;;;;;;;22.55;56.89;101227.00;4993208;28;1236;-44
2021/09/27 08:03:16;;;;;;;;;;;;;;;22.53;56.96;101223.59;4982893;28;1625;-44
2021/09/27 08:05:43;;;;;;;;;;;;;;;22.55;56.91;101227.00;4982276;28;1641;-44
2021/09/27 08:08:10;;;;;;;;;;;;;;;22.58;56.93;101232.09;4995753;28;1973;-43
2021/09/27 08:10:37;;;;;;;;;;;;;;;22.57;57.18;101224.16;4985841;28;1822;-43
2021/09/27 08:13:04;;;;;;;;;;;;;;;22.62;56.87;101211.06;4985406;28;1505;-43
2021/09/27 08:15:32;;;;;;;;;;;;;;;22.64;56.81;101220.72;4987232;28;1664;-44
2021/09/27 08:17:58;;;;;;;;;;;;;;;22.66;56.83;101217.00;4990734;28;1474;-43
2021/09/27 08:20:37;;;;;;;;;;;;;;;22.63;56.65;101208.22;4987642;28;1617;-43
2021/09/27 08:23:04;;;;;;;;;;;;;;;22.61;57.07;101204.81;4987758;28;1839;-43
2021/09/27 08:25:30;;;;;;;;;;;;;;;22.64;56.87;101203.69;4985794;28;1939;-43
2021/09/27 08:27:59;;;;;;;;;;;;;;;22.63;56.87;101191.22;4987555;28;1902;-44
2021/09/27 08:30:27;;;;;;;;;;;;;;;22.66;56.95;101195.44;4986079;28;1461;-43
2021/09/27 08:32:54;;;;;;;;;;;;;;;22.59;56.70;101187.97;4987562;28;1008;-44
2021/09/27 08:35:20;;;;;;;;;;;;;;;22.70;56.75;101175.28;4985090;28;1810;-42
2021/09/27 08:37:50;;;;;;;;;;;;;;;22.66;56.78;101179.28;4993935;28;1873;-44
2021/09/27 08:40:23;;;;;;;;;;;;;;;22.63;57.00;101180.44;4987280;28;1792;-43
2021/09/27 08:42:50;;;;;;;;;;;;;;;22.63;56.96;101175.88;4986542;28;1867;-42
2021/09/27 08:45:20;;;;;;;;;;;;;;;22.66;56.88;101190.06;4985814;28;1092;-44
2021/09/27 08:47:53;;;;;;;;;;;;;;;22.67;56.78;101178.28;4985323;28;1975;-43
2021/09/27 08:50:26;;;;;;;;;;;;;;;22.70;56.64;101181.53;4984833;28;1914;-42
2021/09/27 08:52:54;;;;;;;;;;;;;;;22.69;56.90;101179.81;4993236;28;1775;-45
2021/09/27 08:55:21;;;;;;;;;;;;;;;22.67;56.94;101171.03;4985961;28;1761;-43
2021/09/27 08:57:54;;;;;;;;;;;;;;;22.66;56.77;101173.88;4985648;28;1749;-44
2021/09/27 09:00:29;;;;;;;;;;;;;;;22.68;56.95;101167.38;4985039;28;1567;-44
2021/09/27 09:02:59;;;;;;;;;;;;;;;22.71;56.82;101176.97;4987223;28;1484;-43
2021/09/27 09:05:28;;;;;;;;;;;;;;;22.72;57.27;101181.38;4985315;28;1068;-43
2021/09/27 09:08:01;;;;;;;;;;;;;;;22.68;56.76;101164.66;4993173;28;1906;-43
2021/09/27 09:10:35;;;;;;;;;;;;;;;22.67;56.91;101172.91;4984935;28;1531;-43
2021/09/27 09:13:03;;;;;;;;;;;;;;;22.70;57.07;101168.06;4985632;28;1870;-43
2021/09/27 09:15:30;;;;;;;;;;;;;;;22.66;57.09;101160.41;4986561;28;1112;-43
2021/09/27 09:18:00;;;;;;;;;;;;;;;22.67;56.91;101154.88;4991125;28;1760;-43
2021/09/27 09:20:28;;;;;;;;;;;;;;;22.70;57.07;101154.56;4986216;28;1763;-43
2021/09/27 09:22:55;;;;;;;;;;;;;;;22.70;57.24;101153.72;4985383;28;2223;-43
2021/09/27 09:25:26;;;;;;;;;;;;;;;22.75;56.71;101141.47;4985708;28;1703;-43
2021/09/27 09:27:53;;;;;;;;;;;;;;;22.72;56.82;101140.91;4985593;28;1906;-43
2021/09/27 09:30:22;;;;;;;;;;;;;;;22.76;56.80;101139.63;4984876;28;1482;-44
2021/09/27 09:32:52;;;;;;;;;;;;;;;22.77;56.88;101127.84;4984731;28;1003;-43
2021/09/27 09:35:21;;;;;;;;;;;;;;;22.79;56.89;101128.53;4984169;28;1903;-43
2021/09/27 09:37:50;;;;;;;;;;;;;;;22.78;56.75;101138.50;4992861;28;1770;-42
2021/09/27 09:40:18;;;;;;;;;;;;;;;22.84;56.55;101134.34;4984624;28;1072;-43
2021/09/27 09:42:56;;;;;;;;;;;;;;;23.03;56.19;101134.22;4981635;28;1783;-43
2021/09/27 09:45:24;;;;;;;;;;;;;;;22.90;56.70;101136.44;4986131;28;2197;-43
2021/09/27 09:47:50;;;;;;;;;;;;;;;22.91;56.49;101119.22;4985676;28;1727;-43
2021/09/27 09:50:28;;;;;;;;;;;;;;;22.90;56.35;101114.84;4985711;28;1953;-43
2021/09/27 09:52:55;;;;;;;;;;;;;;;22.93;56.36;101101.03;4986998;28;1620;-43
2021/09/27 09:55:23;;;;;;;;;;;;;;;22.93;56.29;101105.59;4984350;28;1796;-43
2021/09/27 09:57:59;;;;;;;;;;;;;;;23.00;55.95;101104.00;4985385;28;1684;-44
2021/09/27 10:00:37;;;;;;;;;;;;;;;22.99;56.05;101111.22;4984995;28;2250;-43
2021/09/27 10:03:03;;;;;;;;;;;;;;;23.03;55.79;101103.72;4988533;28;1530;-44
2021/09/27 10:05:34;;;;;;;;;;;;;;;23.07;55.80;101101.56;4983980;28;1079;-43
2021/09/27 10:08:04;;;;;;;;;;;;;;;23.03;56.27;101114.50;4992133;28;1653;-43
2021/09/27 10:10:33;;;;;;;;;;;;;;;23.00;56.08;101107.53;4986337;28;1138;-43
2021/09/27 10:13:01;;;;;;;;;;;;;;;22.95;56.24;101099.03;4987220;28;1906;-43
2021/09/27 10:15:46;;;;;;;;;;;;;;;23.08;56.25;101093.31;4985210;28;1725;-42
2021/09/27 10:18:23;;;;;;;;;;;;;;;22.98;56.42;101085.28;4985396;28;1509;-43
2021/09/27 10:21:01;;;;;;;;;;;;;;;23.06;56.45;101080.97;4985687;28;1694;-43
2021/09/27 10:23:30;;;;;;;;;;;;;;;23.03;56.32;101099.16;4987718;28;1625;-43
2021/09/27 10:26:10;;;;;;;;;;;;;;;23.03;56.33;101090.22;4984496;28;1619;-43
2021/09/27 10:28:40;;;;;;;;;;;;;;;22.99;56.38;101078.84;4984437;28;1935;-43
2021/09/27 10:31:08;;;;;;;;;;;;;;;22.96;56.36;101076.47;4982195;28;1553;-43
2021/09/27 10:33:37;;;;;;;;;;;;;;;23.00;56.15;101080.56;4982797;28;1601;-43
2021/09/27 10:36:07;;;;;;;;;;;;;;;23.10;56.19;101085.03;4986401;28;1074;-43
2021/09/27 10:38:40;;;;;;;;;;;;;;;23.09;56.36;101081.50;4989886;28;2063;-42
2021/09/27 10:41:10;;;;;;;;;;;;;;;23.05;56.13;101073.88;4984547;28;1561;-44
2021/09/27 10:43:39;;;;;;;;;;;;;;;23.06;56.21;101078.25;4984235;28;1664;-43
2021/09/27 10:46:06;;;;;;;;;;;;;;;22.99;56.10;101068.06;4982794;28;1730;-43
2021/09/27 10:48:33;;;;;;;;;;;;;;;23.09;56.20;101068.03;4982576;28;1906;-44
2021/09/27 10:51:02;;;;;;;;;;;;;;;23.09;56.43;101076.13;4985774;28;1068;-43
2021/09/27 10:53:32;;;;;;;;;;;;;;;23.07;56.31;101061.09;4990924;28;1747;-43
2021/09/27 10:56:02;;;;;;;;;;;;;;;23.03;56.53;101057.84;4987133;28;1759;-43
2021/09/27 10:58:35;;;;;;;;;;;;;;;22.98;56.49;101052.91;4982849;28;1501;-43
2021/09/27 11:01:04;;;;;;;;;;;;;;;23.08;56.29;101060.94;4982923;28;1962;-43
2021/09/27 11:03:32;;;;;;;;;;;;;;;23.01;56.32;101040.94;4984603;28;1788;-43
2021/09/27 11:06:00;;;;;;;;;;;;;;;23.03;56.50;101045.22;4983445;28;1008;-44
2021/09/27 11:08:40;;;;;;;;;;;;;;;23.05;56.51;101055.00;4980280;28;1981;-43
2021/09/27 11:11:18;;;;;;;;;;;;;;;23.08;56.69;101043.88;4984464;28;1757;-43
2021/09/27 11:13:44;;;;;;;;;;;;;;;23.07;56.54;101042.22;4984785;28;1917;-44
2021/09/27 11:16:16;;;;;;;;;;;;;;;23.07;56.35;101036.81;4986549;28;1085;-43
2021/09/27 11:18:50;;;;;;;;;;;;;;;23.06;56.18;101040.50;4983244;28;1833;-43
2021/09/27 11:21:18;;;;;;;;;;;;;;;22.96;56.70;101037.84;4979882;28;1624;-42
2021/09/27 11:23:46;;;;;;;;;;;;;;;23.02;56.75;101042.69;4986777;28;1683;-43
2021/09/27 11:26:33;;;;;;;;;;;;;;;22.98;56.55;101035.88;4984673;28;1769;-43
2021/09/27 11:29:14;;;;;;;;;;;;;;;22.97;56.62;101035.00;4984569;28;1977;-43
2021/09/27 11:31:42;;;;;;;;;;;;;;;23.00;56.53;101026.63;4982196;28;1652;-43
2021/09/27 11:34:39;;;;;;;;;;;;;;;22.99;56.42;101010.59;4984354;28;1512;-43
2021/09/27 11:37:18;;;;;;;;;;;;;;;23.05;56.17;101014.53;4949629;29;1165;-44
2021/09/27 11:39:46;;;;;;;;;;;;;;;23.03;56.54;100999.34;4972686;28;2171;-43
2021/09/27 11:42:26;;;;;;;;;;;;;;;23.03;56.46;100996.66;4978096;28;1851;-43
2021/09/27 11:44:55;;;;;;;;;;;;;;;23.02;56.73;101007.63;4989410;28;1626;-44
2021/09/27 11:47:45;;;;;;;;;;;;;;;22.99;56.75;101000.63;4988075;28;1524;-44
2021/09/27 11:50:33;;;;;;;;;;;;;;;23.03;56.56;101017.41;4986990;28;1977;-43
2021/09/27 11:53:04;;;;;;;;;;;;;;;22.98;56.70;100987.34;4985003;28;1751;-42
2021/09/27 11:55:33;;;;;;;;;;;;;;;23.00;56.29;100971.84;4985689;28;1504;-43
2021/09/27 11:58:03;;;;;;;;;;;;;;;23.00;56.62;100978.06;4987821;28;1603;-44
2021/09/27 12:00:31;;;;;;;;;;;;;;;22.93;56.87;100971.59;4987277;28;1637;-42
2021/09/27 12:03:12;;;;;;;;;;;;;;;22.91;56.79;100979.00;4985965;28;1313;-43
2021/09/27 12:05:42;;;;;;;;;;;;;;;22.94;56.80;100981.41;4986487;28;1104;-43
2021/09/27 12:08:12;;;;;;;;;;;;;;;22.92;56.87;100979.84;4994194;28;1831;-43
2021/09/27 12:10:43;;;;;;;;;;;;;;;22.98;56.50;100969.28;4985617;28;1906;-43
2021/09/27 12:13:13;;;;;;;;;;;;;;;23.05;56.42;100964.13;4985711;28;1846;-43
2021/09/27 12:15:41;;;;;;;;;;;;;;;23.06;56.54;100967.66;4986168;28;1143;-43
2021/09/27 12:18:28;;;;;;;;;;;;;;;22.98;56.76;100957.66;4982846;28;1618;-43
2021/09/27 12:20:55;;;;;;;;;;;;;;;22.94;56.98;100962.53;4986855;28;1663;-43
2021/09/27 12:23:21;;;;;;;;;;;;;;;22.87;57.05;100966.84;4989974;28;1727;-43
2021/09/27 12:25:52;;;;;;;;;;;;;;;22.81;57.27;100951.28;4985501;28;1568;-43
2021/09/27 12:28:29;;;;;;;;;;;;;;;22.83;56.89;100957.38;4985253;28;1449;-43
2021/09/27 12:30:57;;;;;;;;;;;;;;;22.86;57.26;100951.69;4985082;28;1978;-43
2021/09/27 12:33:26;;;;;;;;;;;;;;;22.82;57.13;100951.13;4986224;28;1725;-43
2021/09/27 12:36:02;;;;;;;;;;;;;;;22.83;57.13;100955.50;4987896;28;1085;-43
2021/09/27 12:38:28;;;;;;;;;;;;;;;22.82;57.26;100953.00;4992879;28;2048;-43
2021/09/27 12:40:55;;;;;;;;;;;;;;;22.77;57.40;100961.53;4985917;28;1736;-43
2021/09/27 12:43:23;;;;;;;;;;;;;;;22.82;57.35;100950.28;4985197;28;1664;-43
2021/09/27 12:45:50;;;;;;;;;;;;;;;22.79;57.44;100948.75;4985002;28;1502;-43
2021/09/27 12:48:19;;;;;;;;;;;;;;;22.80;57.33;100950.44;4987240;28;2557;-44
2021/09/27 12:50:56;;;;;;;;;;;;;;;22.80;57.33;100953.16;4986600;28;1985;-43
2021/09/27 12:53:29;;;;;;;;;;;;;;;22.82;57.61;100958.38;4993295;28;2094;-44
2021/09/27 12:55:56;;;;;;;;;;;;;;;22.79;57.58;100947.91;4985887;28;1807;-43
2021/09/27 12:58:30;;;;;;;;;;;;;;;22.80;57.48;100954.97;4984489;28;1624;-43
2021/09/27 13:00:56;;;;;;;;;;;;;;;22.80;57.35;100946.88;4984632;28;1605;-43
2021/09/27 13:03:25;;;;;;;;;;;;;;;22.80;57.57;100963.94;4986006;28;1752;-43
2021/09/27 13:06:04;;;;;;;;;;;;;;;22.74;57.62;100948.38;4987188;28;1000;-44
2021/09/27 13:08:39;;;;;;;;;;;;;;;22.75;57.60;100949.22;4992181;28;1800;-43